Time;durP1;ratioP1;P1;durP2;ratioP2;P2;SDS_P1;SDS_P2;PMS_P1;PMS_P2;Temp;Humidity;BMP_temperature;BMP_pressure;BME280_temperature;BME280_humidity;BME280_pressure;Samples;Min_cycle;Max_cycle;Signal;HPM_P1;HPM_P2
2022/06/24 03:32:09;;;;;;;;;;;;;;;10.64;88.93;98867.09;6298228;22;19945;-89
2022/06/24 03:34:35;;;;;;;;;;;;;;;10.56;89.32;98870.16;6280523;22;20342;-89
2022/06/24 03:37:00;;;;;;;;;;;;;;;10.65;89.33;98874.94;6307666;22;20341;-88
2022/06/24 03:39:26;;;;;;;;;;;;;;;10.70;89.25;98870.22;6308944;22;20388;-89
2022/06/24 03:41:51;;;;;;;;;;;;;;;10.74;89.43;98873.56;6307133;22;19918;-91
2022/06/24 03:44:16;;;;;;;;;;;;;;;10.77;88.93;98870.75;6306247;22;19945;-89
2022/06/24 03:46:41;;;;;;;;;;;;;;;10.78;88.72;98874.25;6307553;22;19915;-92
2022/06/24 03:49:07;;;;;;;;;;;;;;;10.82;89.13;98873.13;6307673;22;19911;-91
2022/06/24 03:51:33;;;;;;;;;;;;;;;10.84;88.43;98868.59;6280361;22;19950;-90
2022/06/24 03:53:59;;;;;;;;;;;;;;;10.85;88.69;98867.63;6308538;22;20306;-95
2022/06/24 03:56:24;;;;;;;;;;;;;;;10.71;88.48;98873.75;6307942;22;19946;-89
2022/06/24 03:58:49;;;;;;;;;;;;;;;10.73;89.04;98867.41;6278850;22;19992;-91
2022/06/24 04:01:17;;;;;;;;;;;;;;;10.54;89.19;98874.72;6280397;22;19911;-92
2022/06/24 04:03:43;;;;;;;;;;;;;;;10.67;89.77;98870.44;6280368;22;19919;-91
2022/06/24 04:06:08;;;;;;;;;;;;;;;10.76;89.66;98876.97;6307608;22;20235;-89
2022/06/24 04:08:34;;;;;;;;;;;;;;;10.78;89.88;98876.88;6280496;22;19911;-90
2022/06/24 04:11:07;;;;;;;;;;;;;;;10.90;89.38;98877.03;6307769;22;20354;-89
2022/06/24 04:13:32;;;;;;;;;;;;;;;10.80;89.42;98877.66;6307225;22;19997;-89
2022/06/24 04:15:57;;;;;;;;;;;;;;;10.83;89.99;98881.00;6305585;22;19921;-88
2022/06/24 04:18:23;;;;;;;;;;;;;;;10.85;90.05;98881.75;6307286;22;19946;-89
2022/06/24 04:20:48;;;;;;;;;;;;;;;10.72;90.41;98883.38;6307331;22;19918;-90
2022/06/24 04:23:13;;;;;;;;;;;;;;;10.87;90.91;98881.66;6307180;22;20327;-91
2022/06/24 04:25:38;;;;;;;;;;;;;;;10.67;90.64;98872.19;6307204;22;19911;-91
2022/06/24 04:28:04;;;;;;;;;;;;;;;10.71;91.12;98874.59;6307069;22;19938;-90
2022/06/24 04:30:29;;;;;;;;;;;;;;;10.77;90.63;98877.81;6306196;22;20207;-91
2022/06/24 04:32:55;;;;;;;;;;;;;;;10.76;90.57;98879.63;6307103;22;19925;-90
2022/06/24 04:35:20;;;;;;;;;;;;;;;10.83;90.31;98873.03;6279837;22;20001;-89
2022/06/24 04:37:45;;;;;;;;;;;;;;;10.84;89.58;98887.97;6307219;22;19919;-91
2022/06/24 07:40:25;;;;;;;;;;;;;;;11.04;89.40;98886.81;6302822;22;20365;-86
2022/06/24 07:42:53;;;;;;;;;;;;;;;11.03;89.37;98878.97;6280458;22;19915;-86
2022/06/24 07:45:27;;;;;;;;;;;;;;;11.27;94.01;98882.78;6280427;22;20402;-86
2022/06/24 07:48:02;;;;;;;;;;;;;;;11.62;97.76;98882.44;6307459;22;20277;-86
2022/06/24 07:50:28;;;;;;;;;;;;;;;11.04;95.74;98880.66;6307755;22;20689;-86
2022/06/24 07:53:06;;;;;;;;;;;;;;;;;;;;;
2022/06/24 07:58:38;;;;;;;;;;;;;;;11.59;97.71;98872.03;6307587;22;19946;-86
2022/06/24 08:01:03;;;;;;;;;;;;;;;11.54;95.49;98876.75;6304958;22;19911;-86
2022/06/24 08:06:16;;;;;;;;;;;;;;;11.71;98.91;98875.72;6307143;22;19933;-86
2022/06/24 08:08:42;;;;;;;;;;;;;;;11.47;94.77;98877.22;6305996;22;19911;-88
2022/06/24 08:11:07;;;;;;;;;;;;;;;11.63;97.03;98873.56;6307396;22;19960;-90
2022/06/24 08:13:45;;;;;;;;;;;;;;;;;;;;;
2022/06/24 08:16:11;;;;;;;;;;;;;;;11.40;97.28;98868.78;6307183;22;20290;-88
2022/06/24 08:18:46;;;;;;;;;;;;;;;;;;;;;
2022/06/24 08:21:16;;;;;;;;;;;;;;;11.76;99.46;98867.50;6295828;22;19997;-88
2022/06/24 08:23:41;;;;;;;;;;;;;;;11.71;99.34;98865.13;6278731;22;19917;-89
2022/06/24 08:26:12;;;;;;;;;;;;;;;11.29;96.93;98868.59;6279748;22;20316;-89
2022/06/24 08:28:47;;;;;;;;;;;;;;;11.69;99.31;98861.69;6279081;22;20319;-88
2022/06/24 08:31:15;;;;;;;;;;;;;;;11.87;100.00;98858.84;6306930;22;19914;-92
2022/06/24 08:33:46;;;;;;;;;;;;;;;11.48;96.61;98865.69;6277834;22;19922;-87
2022/06/24 08:36:16;;;;;;;;;;;;;;;11.23;93.14;98859.19;6306016;22;20337;-89
2022/06/24 08:41:27;;;;;;;;;;;;;;;11.43;94.41;98861.50;6307426;22;20377;-88
2022/06/24 08:43:53;;;;;;;;;;;;;;;11.69;98.14;98851.06;6279546;22;19946;-88
2022/06/24 08:46:21;;;;;;;;;;;;;;;11.51;97.47;98857.53;6306788;22;19915;-89
2022/06/24 08:48:58;;;;;;;;;;;;;;;11.55;96.32;98851.94;6306957;22;19911;-89
2022/06/24 08:51:24;;;;;;;;;;;;;;;11.82;99.29;98840.53;6306808;22;19911;-89
2022/06/24 08:53:55;;;;;;;;;;;;;;;11.66;98.79;98840.66;6278213;22;19911;-88
2022/06/24 08:56:23;;;;;;;;;;;;;;;11.42;96.32;98843.03;6306866;22;19907;-88
2022/06/24 08:58:51;;;;;;;;;;;;;;;11.73;98.97;98841.97;6306890;22;19914;-89
2022/06/24 09:01:19;;;;;;;;;;;;;;;12.02;100.00;98843.78;6306661;22;19911;-88
2022/06/24 09:03:44;;;;;;;;;;;;;;;11.58;96.61;98834.97;6279805;22;19911;-89
2022/06/24 09:06:17;;;;;;;;;;;;;;;11.76;97.33;98828.53;6306920;22;19910;-88
2022/06/24 09:08:54;;;;;;;;;;;;;;;12.04;99.84;98833.91;6305565;22;19964;-88
2022/06/24 09:11:20;;;;;;;;;;;;;;;11.54;97.22;98831.66;6307130;22;19989;-89
2022/06/24 09:13:58;;;;;;;;;;;;;;;;;;;;;
2022/06/24 09:16:25;;;;;;;;;;;;;;;12.13;100.00;98835.97;6307552;22;19994;-88
2022/06/24 09:18:59;;;;;;;;;;;;;;;11.84;97.50;98828.03;6306491;22;19911;-88
2022/06/24 09:21:44;;;;;;;;;;;;;;;11.90;98.27;98819.69;6306683;22;19943;-89
2022/06/24 09:24:18;;;;;;;;;;;;;;;12.19;100.00;98822.31;6304926;22;19916;-88
2022/06/24 09:27:10;;;;;;;;;;;;;;;11.72;98.27;98816.38;6307058;22;19968;-88
2022/06/24 09:29:35;;;;;;;;;;;;;;;12.11;100.00;98820.16;6279316;22;20231;-89
2022/06/24 09:32:12;;;;;;;;;;;;;;;12.28;100.00;98812.88;6306658;22;19918;-89
2022/06/24 09:34:37;;;;;;;;;;;;;;;11.68;98.27;98811.38;6279261;22;20002;-89
2022/06/24 09:37:07;;;;;;;;;;;;;;;12.09;99.79;98818.53;6279193;22;19947;-89
2022/06/24 09:39:32;;;;;;;;;;;;;;;12.25;100.00;98802.47;6271998;22;19915;-89
2022/06/24 09:42:07;;;;;;;;;;;;;;;11.74;99.38;98809.19;6274020;22;19934;-89
2022/06/24 09:44:47;;;;;;;;;;;;;;;12.20;100.00;98813.38;6241894;22;19943;-89
2022/06/24 09:47:22;;;;;;;;;;;;;;;12.15;100.00;98807.53;6216501;23;19938;-89
2022/06/24 09:49:57;;;;;;;;;;;;;;;11.95;99.17;98816.75;6216849;23;19964;-89
2022/06/24 09:52:26;;;;;;;;;;;;;;;12.31;100.00;98816.19;6242050;23;19915;-89
2022/06/24 09:54:59;;;;;;;;;;;;;;;11.88;99.04;98813.63;6215025;23;19912;-88
2022/06/24 09:57:30;;;;;;;;;;;;;;;12.02;99.76;98810.13;6211408;23;19955;-88
2022/06/24 10:02:55;;;;;;;;;;;;;;;11.88;98.84;98797.69;6211636;23;20247;-89
2022/06/24 10:05:40;;;;;;;;;;;;;;;12.23;100.00;98785.78;6211260;23;19912;-88
2022/06/24 10:08:16;;;;;;;;;;;;;;;12.43;100.00;98793.28;6187069;23;19916;-89
2022/06/24 10:10:44;;;;;;;;;;;;;;;12.13;98.81;98796.16;6242142;23;19912;-89
2022/06/24 10:13:13;;;;;;;;;;;;;;;12.40;100.00;98801.47;6241800;23;20348;-89
2022/06/24 10:15:43;;;;;;;;;;;;;;;12.31;100.00;98802.91;6241898;23;19916;-89
2022/06/24 10:18:12;;;;;;;;;;;;;;;12.13;98.88;98806.78;6181383;23;19991;-89
2022/06/24 10:20:55;;;;;;;;;;;;;;;12.46;100.00;98802.84;6156740;23;20003;-89
2022/06/24 10:23:39;;;;;;;;;;;;;;;12.17;99.59;98803.81;6209723;23;20314;-88
2022/06/24 10:26:17;;;;;;;;;;;;;;;12.24;99.21;98793.66;6211344;23;20011;-88
2022/06/24 10:29:07;;;;;;;;;;;;;;;12.56;100.00;98788.00;6211444;23;19962;-88
2022/06/24 10:32:04;;;;;;;;;;;;;;;12.05;97.71;98788.69;6211486;23;20369;-88
2022/06/24 10:34:33;;;;;;;;;;;;;;;12.46;99.89;98786.91;6186355;23;19916;-89
2022/06/24 10:37:21;;;;;;;;;;;;;;;12.58;100.00;98788.75;6211537;23;20260;-88
2022/06/24 10:39:54;;;;;;;;;;;;;;;12.24;98.72;98787.47;6209737;23;19916;-88
2022/06/24 10:42:22;;;;;;;;;;;;;;;12.45;100.00;98780.75;6232118;22;19965;-88
2022/06/24 10:44:55;;;;;;;;;;;;;;;12.41;99.99;98763.28;6275347;22;19916;-88
2022/06/24 10:47:27;;;;;;;;;;;;;;;12.35;98.87;98774.34;6273474;22;19989;-88
2022/06/24 10:49:55;;;;;;;;;;;;;;;12.63;100.00;98769.84;6273932;22;20312;-88
2022/06/24 10:52:47;;;;;;;;;;;;;;;12.23;98.83;98776.00;6276564;22;19946;-88
2022/06/24 10:55:23;;;;;;;;;;;;;;;12.47;99.50;98785.97;6277187;22;20327;-88
2022/06/24 10:57:48;;;;;;;;;;;;;;;12.67;100.00;98785.47;6277613;22;19915;-88
2022/06/24 11:00:14;;;;;;;;;;;;;;;12.26;98.26;98797.03;6275760;22;19954;-88
2022/06/24 11:02:39;;;;;;;;;;;;;;;12.51;99.73;98787.47;6277210;22;19915;-88
2022/06/24 11:05:13;;;;;;;;;;;;;;;12.68;100.00;98783.66;6277018;22;19911;-88
2022/06/24 11:07:44;;;;;;;;;;;;;;;12.23;98.65;98769.84;6276085;22;19998;-88
2022/06/24 11:10:18;;;;;;;;;;;;;;;12.62;100.00;98776.97;6277113;22;19912;-88
2022/06/24 11:13:12;;;;;;;;;;;;;;;12.76;100.00;98773.34;6277281;22;19911;-88
2022/06/24 11:15:45;;;;;;;;;;;;;;;12.41;98.80;98773.06;6276895;22;19911;-88
2022/06/24 11:18:20;;;;;;;;;;;;;;;12.71;100.00;98772.81;6277002;22;19912;-88
2022/06/24 11:21:17;;;;;;;;;;;;;;;12.49;99.35;98776.94;6275722;22;19915;-88
2022/06/24 11:24:06;;;;;;;;;;;;;;;12.50;99.48;98762.69;6275406;22;19977;-88
2022/06/24 11:26:41;;;;;;;;;;;;;;;12.84;100.00;98780.81;6277304;22;19923;-88
2022/06/24 11:29:19;;;;;;;;;;;;;;;12.33;97.86;98782.44;6275667;22;19912;-88
2022/06/24 11:31:45;;;;;;;;;;;;;;;12.69;99.98;98788.03;6276946;22;19995;-88
2022/06/24 11:34:10;;;;;;;;;;;;;;;12.72;100.00;98791.31;6275453;22;19942;-88
2022/06/24 11:36:39;;;;;;;;;;;;;;;12.40;98.79;98796.16;6275289;22;19915;-88
2022/06/24 11:39:09;;;;;;;;;;;;;;;12.77;100.00;98785.72;6276443;22;19912;-88
2022/06/24 11:41:42;;;;;;;;;;;;;;;12.69;100.00;98778.25;6280551;22;19915;-88
2022/06/24 11:44:13;;;;;;;;;;;;;;;12.56;100.00;98773.84;6280668;22;20251;-88
2022/06/24 11:46:49;;;;;;;;;;;;;;;12.89;100.00;98771.59;6307426;22;20322;-88
2022/06/24 11:52:03;;;;;;;;;;;;;;;12.69;100.00;98777.41;6290731;22;20315;-88
2022/06/24 11:54:37;;;;;;;;;;;;;;;12.96;100.00;98781.81;6306169;22;19929;-88
2022/06/24 11:57:11;;;;;;;;;;;;;;;12.34;99.69;98786.75;6280143;22;20242;-88
2022/06/24 11:59:39;;;;;;;;;;;;;;;12.72;100.00;98799.31;6307340;22;19911;-88
2022/06/24 12:02:14;;;;;;;;;;;;;;;12.91;100.00;98806.03;6307733;22;19953;-88
2022/06/24 12:04:42;;;;;;;;;;;;;;;12.48;100.00;98798.31;6280123;22;19911;-88
2022/06/24 12:07:45;;;;;;;;;;;;;;;;;;;;;
2022/06/24 12:10:14;;;;;;;;;;;;;;;12.57;100.00;98794.16;6307739;22;20281;-88
2022/06/24 12:13:07;;;;;;;;;;;;;;;;;;;;;
2022/06/24 12:16:02;;;;;;;;;;;;;;;12.97;100.00;98808.28;6307425;22;20398;-88
2022/06/24 12:18:30;;;;;;;;;;;;;;;12.38;100.00;98811.34;6264880;22;20040;-88
2022/06/24 12:21:04;;;;;;;;;;;;;;;12.72;100.00;98806.44;6307488;22;19941;-88
2022/06/24 12:23:42;;;;;;;;;;;;;;;12.84;100.00;98818.03;6278430;22;19911;-88
2022/06/24 12:26:27;;;;;;;;;;;;;;;;;;;;;
2022/06/24 12:29:22;;;;;;;;;;;;;;;;;;;;;
2022/06/24 12:31:50;;;;;;;;;;;;;;;12.49;100.00;98814.13;6307268;22;20025;-87
2022/06/24 12:34:33;;;;;;;;;;;;;;;12.71;100.00;98807.38;6307290;22;19919;-88
2022/06/24 12:36:59;;;;;;;;;;;;;;;12.93;100.00;98806.78;6279857;22;19969;-88
2022/06/24 12:39:35;;;;;;;;;;;;;;;12.52;100.00;98802.44;6305333;22;19915;-88
2022/06/24 12:42:03;;;;;;;;;;;;;;;12.81;100.00;98797.84;6279688;22;19968;-88
2022/06/24 12:44:48;;;;;;;;;;;;;;;12.75;100.00;98798.25;6279935;22;19926;-88
2022/06/24 12:53:01;;;;;;;;;;;;;;;12.25;100.00;98813.91;6305347;22;19922;-88
2022/06/24 12:55:29;;;;;;;;;;;;;;;12.74;100.00;98817.81;6279530;22;19911;-88
2022/06/24 12:57:57;;;;;;;;;;;;;;;13.00;100.00;98828.47;6306796;22;19933;-88
2022/06/24 13:00:25;;;;;;;;;;;;;;;12.42;100.00;98834.09;6306788;22;19929;-88
2022/06/24 13:02:59;;;;;;;;;;;;;;;12.81;100.00;98844.81;6279762;22;19915;-88
2022/06/24 13:05:28;;;;;;;;;;;;;;;12.95;100.00;98850.06;6279746;22;19957;-88
2022/06/24 13:07:56;;;;;;;;;;;;;;;12.44;100.00;98856.06;6305184;22;19911;-88
2022/06/24 13:10:27;;;;;;;;;;;;;;;12.81;100.00;98856.31;6306916;22;19911;-88
2022/06/24 13:12:57;;;;;;;;;;;;;;;12.77;100.00;98857.47;6306633;22;19911;-88
2022/06/24 13:15:25;;;;;;;;;;;;;;;12.54;100.00;98854.53;6307016;22;19918;-88
2022/06/24 13:17:53;;;;;;;;;;;;;;;12.90;100.00;98845.06;6306732;22;20246;-88
2022/06/24 13:20:19;;;;;;;;;;;;;;;14.12;100.00;98846.41;6279406;22;19922;-86
2022/06/24 13:22:44;;;;;;;;;;;;;;;13.26;100.00;98846.16;6277643;22;19915;-86
2022/06/24 13:25:11;;;;;;;;;;;;;;;13.31;100.00;98848.53;6306648;22;19964;-86
2022/06/24 13:27:38;;;;;;;;;;;;;;;12.67;100.00;98846.59;6306567;22;19999;-86
2022/06/24 13:30:04;;;;;;;;;;;;;;;12.92;100.00;98836.13;6306654;22;19915;-85
2022/06/24 13:32:29;;;;;;;;;;;;;;;13.18;100.00;98845.84;6279317;22;19917;-86
2022/06/24 13:34:55;;;;;;;;;;;;;;;12.51;100.00;98853.91;6279100;22;20329;-86
2022/06/24 13:37:20;;;;;;;;;;;;;;;12.87;100.00;98849.72;6306502;22;19910;-86
2022/06/24 13:39:45;;;;;;;;;;;;;;;13.15;100.00;98848.72;6304983;22;19915;-86
2022/06/24 13:42:11;;;;;;;;;;;;;;;12.39;100.00;98860.00;6307011;22;19941;-86
2022/06/24 13:44:36;;;;;;;;;;;;;;;12.80;100.00;98849.28;6253923;22;19907;-86
2022/06/24 13:47:02;;;;;;;;;;;;;;;13.08;100.00;98842.09;6279156;22;19915;-86
2022/06/24 13:49:27;;;;;;;;;;;;;;;12.48;100.00;98844.31;6254157;22;20242;-86
2022/06/24 13:51:53;;;;;;;;;;;;;;;12.80;100.00;98846.63;6306498;22;19915;-86
2022/06/24 13:54:19;;;;;;;;;;;;;;;13.09;100.00;98843.81;6305140;22;20326;-86
2022/06/24 13:56:44;;;;;;;;;;;;;;;12.38;99.76;98853.84;6306506;22;19915;-86
2022/06/24 13:59:11;;;;;;;;;;;;;;;12.66;100.00;98854.69;6306672;22;19911;-85
2022/06/24 14:01:36;;;;;;;;;;;;;;;13.00;100.00;98855.06;6279352;22;19929;-86
2022/06/24 14:04:01;;;;;;;;;;;;;;;12.54;100.00;98870.47;6306449;22;19911;-87
2022/06/24 14:06:26;;;;;;;;;;;;;;;12.54;100.00;98874.94;6279364;22;19915;-86
2022/06/24 14:08:52;;;;;;;;;;;;;;;12.87;100.00;98871.84;6304701;22;20315;-86
2022/06/24 14:11:17;;;;;;;;;;;;;;;12.60;100.00;98879.84;6306484;22;19946;-86
2022/06/24 14:13:43;;;;;;;;;;;;;;;12.23;98.19;98879.56;6306420;22;19937;-86
2022/06/24 14:16:08;;;;;;;;;;;;;;;12.17;95.29;98874.66;6306423;22;19926;-85
2022/06/24 14:18:35;;;;;;;;;;;;;;;12.06;93.35;98864.75;6306489;22;19937;-86
2022/06/24 14:21:01;;;;;;;;;;;;;;;12.15;91.90;98871.25;6306341;22;19922;-85
2022/06/24 14:26:10;;;;;;;;;;;;;;;12.29;96.60;98868.56;6306655;22;19998;-85
2022/06/24 14:28:36;;;;;;;;;;;;;;;12.64;100.00;98875.19;6308427;22;20280;-85
2022/06/24 14:31:01;;;;;;;;;;;;;;;12.23;98.03;98876.91;6308473;22;20002;-86
2022/06/24 14:33:27;;;;;;;;;;;;;;;12.36;97.82;98876.97;6280927;22;20006;-86
2022/06/24 14:35:52;;;;;;;;;;;;;;;12.61;100.00;98878.06;6280660;22;19938;-86
2022/06/24 14:41:01;;;;;;;;;;;;;;;13.18;99.15;98861.81;6308372;22;19976;-86
2022/06/24 14:43:26;;;;;;;;;;;;;;;13.04;100.00;98859.25;6280865;22;19915;-86
2022/06/24 14:45:52;;;;;;;;;;;;;;;12.88;100.00;98851.44;6281029;22;20314;-87
2022/06/24 14:48:17;;;;;;;;;;;;;;;12.29;98.89;98849.13;6308092;22;19922;-86
2022/06/24 14:50:43;;;;;;;;;;;;;;;12.59;100.00;98845.41;6308098;22;19965;-86
2022/06/24 14:53:08;;;;;;;;;;;;;;;12.94;100.00;98842.19;6306523;22;19994;-86
2022/06/24 14:55:33;;;;;;;;;;;;;;;12.38;99.94;98856.50;6308564;22;19918;-87
2022/06/24 14:57:59;;;;;;;;;;;;;;;11.91;97.05;98860.34;6308115;22;19910;-87
2022/06/24 15:00:26;;;;;;;;;;;;;;;11.92;94.85;98873.56;6308023;22;19911;-86
2022/06/24 15:02:51;;;;;;;;;;;;;;;11.99;93.14;98866.06;6280845;22;19976;-86
2022/06/24 15:05:17;;;;;;;;;;;;;;;12.34;96.65;98868.25;6280620;22;19915;-86
2022/06/24 15:07:43;;;;;;;;;;;;;;;12.70;100.00;98858.81;6306977;22;19922;-86
2022/06/24 15:10:08;;;;;;;;;;;;;;;12.33;99.55;98869.22;6307914;22;19919;-87
2022/06/24 15:12:34;;;;;;;;;;;;;;;12.44;100.00;98864.03;6280881;22;19910;-86
2022/06/24 15:14:59;;;;;;;;;;;;;;;12.77;100.00;98865.44;6308401;22;19910;-87
2022/06/24 15:17:24;;;;;;;;;;;;;;;12.84;100.00;98861.44;6308044;22;19952;-86
2022/06/24 15:19:50;;;;;;;;;;;;;;;12.64;100.00;98864.56;6307884;22;19915;-86
2022/06/24 15:22:16;;;;;;;;;;;;;;;12.86;100.00;98859.53;6281045;22;20230;-86
2022/06/24 15:24:42;;;;;;;;;;;;;;;12.43;100.00;98862.38;6278811;22;19953;-86
2022/06/24 15:27:07;;;;;;;;;;;;;;;12.44;99.84;98864.03;6280659;22;19911;-86
2022/06/24 15:29:32;;;;;;;;;;;;;;;12.70;100.00;98864.13;6280453;22;19994;-86
2022/06/24 15:32:00;;;;;;;;;;;;;;;12.63;100.00;98869.00;6307738;22;19915;-86
2022/06/24 15:34:26;;;;;;;;;;;;;;;11.99;99.77;98874.03;6307771;22;19911;-87
2022/06/24 15:36:52;;;;;;;;;;;;;;;12.51;100.00;98867.19;6280572;22;19926;-87
2022/06/24 15:39:17;;;;;;;;;;;;;;;12.84;100.00;98869.41;6305415;22;19911;-87
2022/06/24 15:41:43;;;;;;;;;;;;;;;12.11;100.00;98875.03;6307720;22;19911;-86
2022/06/24 15:44:08;;;;;;;;;;;;;;;12.09;97.78;98872.47;6306650;22;19915;-86
2022/06/24 15:46:33;;;;;;;;;;;;;;;12.25;99.29;98869.69;6307676;22;19914;-87
2022/06/24 15:48:58;;;;;;;;;;;;;;;12.68;100.00;98860.72;6280037;22;19915;-86
2022/06/24 15:51:24;;;;;;;;;;;;;;;12.44;100.00;98864.03;6307047;22;19946;-86
2022/06/24 15:53:49;;;;;;;;;;;;;;;12.17;100.00;98870.22;6305917;22;19914;-86
2022/06/24 15:56:14;;;;;;;;;;;;;;;12.62;100.00;98866.44;6254241;22;19922;-87
2022/06/24 15:58:47;;;;;;;;;;;;;;;12.66;100.00;98862.66;6280176;22;19911;-87
2022/06/24 16:01:13;;;;;;;;;;;;;;;12.00;100.00;98859.81;6307177;22;20277;-87
2022/06/24 16:03:38;;;;;;;;;;;;;;;12.54;100.00;98851.88;6307233;22;19915;-86
2022/06/24 16:06:03;;;;;;;;;;;;;;;12.84;100.00;98857.91;6307821;22;20341;-87
2022/06/24 16:08:29;;;;;;;;;;;;;;;12.39;99.93;98874.13;6305958;22;19911;-87
2022/06/24 16:10:56;;;;;;;;;;;;;;;12.44;100.00;98866.69;6307035;22;19922;-87
2022/06/24 16:13:22;;;;;;;;;;;;;;;12.80;100.00;98873.22;6306419;22;19942;-87
2022/06/24 16:15:50;;;;;;;;;;;;;;;12.29;100.00;98873.03;6307339;22;19957;-87
2022/06/24 16:18:17;;;;;;;;;;;;;;;12.32;98.76;98875.50;6307343;22;20326;-87
2022/06/24 16:20:43;;;;;;;;;;;;;;;12.53;100.00;98879.41;6307403;22;19964;-87
2022/06/24 16:23:11;;;;;;;;;;;;;;;12.75;100.00;98875.34;6305614;22;19998;-87
2022/06/24 16:31:04;;;;;;;;;;;;;;;12.66;100.00;98899.84;6306624;22;20310;-87
2022/06/24 16:33:29;;;;;;;;;;;;;;;12.37;100.00;98891.97;6279904;22;19911;-86
2022/06/24 16:36:00;;;;;;;;;;;;;;;12.61;100.00;98892.19;6280023;22;20001;-87
2022/06/24 16:38:25;;;;;;;;;;;;;;;12.72;100.00;98888.81;6304500;22;19998;-87
2022/06/24 16:40:51;;;;;;;;;;;;;;;12.15;100.00;98898.66;6306488;22;20456;-87
2022/06/24 16:43:16;;;;;;;;;;;;;;;12.47;100.00;98901.03;6306221;22;19949;-87
2022/06/24 16:45:42;;;;;;;;;;;;;;;12.87;100.00;98898.44;6306478;22;19933;-86
2022/06/24 16:48:10;;;;;;;;;;;;;;;12.39;100.00;98900.69;6279448;22;19990;-86
2022/06/24 16:50:35;;;;;;;;;;;;;;;12.49;100.00;98901.81;6306500;22;19915;-87
2022/06/24 16:53:01;;;;;;;;;;;;;;;12.85;100.00;98888.88;6305525;22;19976;-87
2022/06/24 16:55:26;;;;;;;;;;;;;;;12.54;100.00;98904.19;6305583;22;19915;-87
2022/06/24 16:57:51;;;;;;;;;;;;;;;12.29;100.00;98908.41;6279292;22;20412;-86
2022/06/24 17:00:18;;;;;;;;;;;;;;;12.74;100.00;98905.50;6306668;22;19937;-86
2022/06/24 17:02:43;;;;;;;;;;;;;;;12.72;100.00;98915.41;6306137;22;20327;-87
2022/06/24 17:05:09;;;;;;;;;;;;;;;12.16;100.00;98918.94;6279151;22;19911;-87
2022/06/24 17:07:35;;;;;;;;;;;;;;;12.68;100.00;98924.53;6278928;22;19992;-86
2022/06/24 17:10:00;;;;;;;;;;;;;;;12.88;100.00;98918.75;6305246;22;19915;-87
2022/06/24 17:12:26;;;;;;;;;;;;;;;12.17;100.00;98920.66;6279198;22;19918;-86
2022/06/24 17:14:52;;;;;;;;;;;;;;;12.69;100.00;98927.06;6306466;22;19915;-87
2022/06/24 17:17:17;;;;;;;;;;;;;;;12.97;100.00;98930.59;6306777;22;20223;-86
2022/06/24 17:19:44;;;;;;;;;;;;;;;12.30;100.00;98939.34;6306820;22;19910;-87
2022/06/24 17:22:12;;;;;;;;;;;;;;;12.66;100.00;98940.56;6306672;22;19941;-88
2022/06/24 17:24:38;;;;;;;;;;;;;;;12.94;100.00;98940.56;6277805;22;20374;-87
2022/06/24 17:27:03;;;;;;;;;;;;;;;12.30;100.00;98949.09;6279431;22;19946;-87
2022/06/24 17:29:29;;;;;;;;;;;;;;;12.61;100.00;98941.84;6306613;22;19919;-87
2022/06/24 17:31:54;;;;;;;;;;;;;;;12.96;100.00;98941.34;6306553;22;20272;-87
2022/06/24 17:34:20;;;;;;;;;;;;;;;12.51;100.00;98947.72;6306619;22;19915;-88
2022/06/24 17:36:46;;;;;;;;;;;;;;;12.65;100.00;98941.53;6279090;22;19989;-87
2022/06/24 17:39:11;;;;;;;;;;;;;;;12.94;100.00;98945.88;6304267;22;19919;-86
2022/06/24 17:41:40;;;;;;;;;;;;;;;12.67;100.00;98939.63;6279454;22;19915;-87
2022/06/24 17:44:10;;;;;;;;;;;;;;;12.48;100.00;98953.25;6278028;22;20373;-87
2022/06/24 17:46:36;;;;;;;;;;;;;;;12.92;100.00;98950.47;6306384;22;20220;-87
2022/06/24 17:49:02;;;;;;;;;;;;;;;12.73;100.00;98951.66;6306395;22;19910;-87
2022/06/24 17:51:27;;;;;;;;;;;;;;;12.55;100.00;98948.38;6278810;22;19911;-87
2022/06/24 17:53:52;;;;;;;;;;;;;;;12.90;100.00;98956.72;6278059;22;19918;-87
2022/06/24 17:56:17;;;;;;;;;;;;;;;12.79;100.00;98958.38;6306204;22;19938;-87
2022/06/24 17:58:43;;;;;;;;;;;;;;;12.46;100.00;98960.47;6306666;22;19957;-87
2022/06/24 18:01:08;;;;;;;;;;;;;;;12.83;100.00;98951.94;6276417;22;19919;-87
2022/06/24 18:03:33;;;;;;;;;;;;;;;12.80;100.00;98947.66;6306461;22;19911;-87
2022/06/24 18:05:59;;;;;;;;;;;;;;;12.40;100.00;98942.25;6278893;22;19911;-87
2022/06/24 18:08:24;;;;;;;;;;;;;;;12.81;100.00;98946.72;6303977;22;19915;-87
2022/06/24 18:10:50;;;;;;;;;;;;;;;12.78;100.00;98956.66;6306346;22;19942;-86
2022/06/24 18:13:18;;;;;;;;;;;;;;;12.40;100.00;98958.19;6305990;22;19940;-87
2022/06/24 18:15:43;;;;;;;;;;;;;;;12.72;100.00;98968.56;6306474;22;19934;-87
2022/06/24 18:18:08;;;;;;;;;;;;;;;12.71;100.00;98969.50;6279330;22;20292;-87
2022/06/24 18:20:33;;;;;;;;;;;;;;;12.46;99.45;98973.75;6306415;22;19921;-87
2022/06/24 18:22:59;;;;;;;;;;;;;;;12.67;100.00;98970.69;6277706;22;19910;-87
2022/06/24 18:25:26;;;;;;;;;;;;;;;12.75;100.00;98972.81;6305043;22;20457;-86
2022/06/24 18:27:59;;;;;;;;;;;;;;;12.07;98.58;98982.41;6278599;22;19989;-87
2022/06/24 18:30:24;;;;;;;;;;;;;;;12.54;100.00;98979.44;6278217;22;19947;-86
2022/06/24 18:32:50;;;;;;;;;;;;;;;12.85;100.00;98985.41;6305444;22;19956;-86
2022/06/24 18:35:15;;;;;;;;;;;;;;;12.08;98.46;98994.75;6304516;22;20555;-87
2022/06/24 18:37:40;;;;;;;;;;;;;;;12.29;98.02;98997.88;6303916;22;19917;-87
2022/06/24 18:40:06;;;;;;;;;;;;;;;12.61;100.00;98995.81;6304607;22;19961;-87
2022/06/24 18:42:34;;;;;;;;;;;;;;;12.17;99.47;99003.00;6306042;22;19915;-87
2022/06/24 18:44:59;;;;;;;;;;;;;;;11.95;95.94;99010.53;6306265;22;20025;-87
2022/06/24 18:47:24;;;;;;;;;;;;;;;11.92;93.34;99010.75;6305609;22;19946;-87
2022/06/24 18:49:50;;;;;;;;;;;;;;;12.22;97.11;99013.34;6278157;22;19910;-87
2022/06/24 18:52:16;;;;;;;;;;;;;;;12.54;100.00;99024.59;6278096;22;19922;-87
2022/06/24 18:54:41;;;;;;;;;;;;;;;11.95;96.93;99018.50;6304148;22;19991;-87
2022/06/24 18:57:06;;;;;;;;;;;;;;;11.81;93.48;99025.47;6305393;22;19911;-92
2022/06/24 18:59:32;;;;;;;;;;;;;;;11.78;91.63;99027.47;6278301;22;19936;-86
2022/06/24 19:01:57;;;;;;;;;;;;;;;11.73;92.02;99022.44;6306073;22;19957;-86
2022/06/24 19:04:22;;;;;;;;;;;;;;;12.15;96.76;99026.13;6279166;22;19942;-87
2022/06/24 19:06:50;;;;;;;;;;;;;;;12.29;98.44;99033.25;6279044;22;20768;-87
2022/06/24 19:09:16;;;;;;;;;;;;;;;11.61;94.98;99039.09;6277506;22;19961;-87
2022/06/24 19:12:04;;;;;;;;;;;;;;;11.86;94.42;99046.44;6305782;22;19993;-87
2022/06/24 19:14:32;;;;;;;;;;;;;;;12.28;98.24;99050.13;6289209;22;19918;-91
2022/06/24 19:16:57;;;;;;;;;;;;;;;11.92;97.74;99053.22;6307940;22;19945;-87
2022/06/24 19:19:23;;;;;;;;;;;;;;;11.58;93.77;99049.88;6307474;22;19915;-88
2022/06/24 19:21:49;;;;;;;;;;;;;;;11.64;91.71;99060.13;6307862;22;19914;-90
2022/06/24 19:24:15;;;;;;;;;;;;;;;11.58;90.07;99063.13;6306030;22;19911;-87
2022/06/24 19:26:40;;;;;;;;;;;;;;;11.48;89.33;99068.13;6307775;22;20015;-88
2022/06/24 19:29:05;;;;;;;;;;;;;;;11.49;88.96;99069.84;6280820;22;19941;-87
2022/06/24 19:31:31;;;;;;;;;;;;;;;11.49;88.53;99077.81;6280439;22;19914;-87
2022/06/24 19:33:56;;;;;;;;;;;;;;;11.39;87.75;99080.13;6307864;22;19993;-88
2022/06/24 19:36:22;;;;;;;;;;;;;;;11.37;87.85;99081.16;6280354;22;19953;-87
2022/06/24 19:38:50;;;;;;;;;;;;;;;11.24;87.93;99091.63;6306199;22;20014;-87
2022/06/24 19:41:16;;;;;;;;;;;;;;;11.27;88.43;99092.28;6242775;23;20045;-87
2022/06/24 19:43:41;;;;;;;;;;;;;;;11.33;87.92;99099.06;6218068;23;20331;-86
2022/06/24 19:46:07;;;;;;;;;;;;;;;11.32;87.42;99094.69;6243303;23;19919;-84
2022/06/24 19:48:33;;;;;;;;;;;;;;;11.51;92.41;99098.94;6217608;23;19954;-85
2022/06/24 19:50:58;;;;;;;;;;;;;;;11.81;97.13;99102.47;6243170;23;19941;-85
2022/06/24 19:53:24;;;;;;;;;;;;;;;11.69;96.37;99099.66;6241728;23;19916;-83
2022/06/24 19:55:49;;;;;;;;;;;;;;;11.44;92.61;99106.41;6243292;23;19916;-84
2022/06/24 19:58:14;;;;;;;;;;;;;;;11.35;90.37;99101.63;6243053;23;19994;-84
2022/06/24 20:01:08;;;;;;;;;;;;;;;;;;;;;
2022/06/24 20:06:21;;;;;;;;;;;;;;;12.31;99.43;99115.50;6288552;22;19918;-87